Terminal Aerodrome Forecast
Issued by NWS

Home | Current Version | Previous Version | Text Only | Print | Product List | Glossary On
Versions: 1 2 3 4 5 6 7 8 9 10 11 12 13 14 15 16
439
FTUS45 KTFX 132338
TAFHLN
TAF
KHLN 132338Z 1400/1424 26008KT P6SM BKN060
      TEMPO 1400/1402 26012G24KT
     FM141200 25007KT P6SM VCSH SCT040 OVC060=

USA.gov is the U.S. government's official web portal to all federal, state and local government web resources and services.